sensor_id;sensor_type;location;lat;lon;timestamp;P1;durP1;ratioP1;P2;durP2;ratioP2
22034;SDS011;11181;51.002;4.356;2023-04-05T00:02:10;12.23;;;6.10;;
22034;SDS011;11181;51.002;4.356;2023-04-05T00:04:38;9.33;;;6.93;;
22034;SDS011;11181;51.002;4.356;2023-04-05T00:07:15;8.70;;;5.67;;
22034;SDS011;11181;51.002;4.356;2023-04-05T00:09:43;8.40;;;6.23;;
22034;SDS011;11181;51.002;4.356;2023-04-05T00:12:10;10.10;;;6.80;;
22034;SDS011;11181;51.002;4.356;2023-04-05T00:14:37;9.60;;;6.13;;
22034;SDS011;11181;51.002;4.356;2023-04-05T00:17:05;9.83;;;5.80;;
22034;SDS011;11181;51.002;4.356;2023-04-05T00:19:32;10.17;;;6.17;;
22034;SDS011;11181;51.002;4.356;2023-04-05T00:22:00;10.93;;;6.43;;
22034;SDS011;11181;51.002;4.356;2023-04-05T00:24:27;13.27;;;7.00;;
22034;SDS011;11181;51.002;4.356;2023-04-05T00:26:55;11.07;;;7.10;;
22034;SDS011;11181;51.002;4.356;2023-04-05T00:29:22;11.50;;;7.20;;
22034;SDS011;11181;51.002;4.356;2023-04-05T00:31:49;9.67;;;6.57;;
22034;SDS011;11181;51.002;4.356;2023-04-05T00:34:17;8.87;;;6.77;;
22034;SDS011;11181;51.002;4.356;2023-04-05T00:36:44;9.07;;;6.60;;
22034;SDS011;11181;51.002;4.356;2023-04-05T00:39:11;10.63;;;7.10;;
22034;SDS011;11181;51.002;4.356;2023-04-05T00:41:38;12.80;;;7.33;;
22034;SDS011;11181;51.002;4.356;2023-04-05T00:44:05;8.83;;;5.80;;
22034;SDS011;11181;51.002;4.356;2023-04-05T00:46:33;8.93;;;5.83;;
22034;SDS011;11181;51.002;4.356;2023-04-05T00:49:02;9.63;;;6.37;;
22034;SDS011;11181;51.002;4.356;2023-04-05T00:51:30;9.67;;;6.23;;
22034;SDS011;11181;51.002;4.356;2023-04-05T00:53:59;9.23;;;6.57;;
22034;SDS011;11181;51.002;4.356;2023-04-05T00:56:27;9.47;;;6.53;;
22034;SDS011;11181;51.002;4.356;2023-04-05T00:58:54;9.87;;;6.17;;
22034;SDS011;11181;51.002;4.356;2023-04-05T01:01:21;10.40;;;5.63;;
22034;SDS011;11181;51.002;4.356;2023-04-05T01:03:51;9.07;;;5.87;;
22034;SDS011;11181;51.002;4.356;2023-04-05T01:06:35;7.97;;;5.27;;
22034;SDS011;11181;51.002;4.356;2023-04-05T01:09:11;10.83;;;5.17;;
22034;SDS011;11181;51.002;4.356;2023-04-05T01:11:47;9.60;;;6.07;;
22034;SDS011;11181;51.002;4.356;2023-04-05T01:14:15;7.90;;;5.17;;
22034;SDS011;11181;51.002;4.356;2023-04-05T01:16:42;10.70;;;6.63;;
22034;SDS011;11181;51.002;4.356;2023-04-05T01:19:09;10.03;;;5.80;;
22034;SDS011;11181;51.002;4.356;2023-04-05T01:24:55;10.33;;;6.53;;
22034;SDS011;11181;51.002;4.356;2023-04-05T01:27:40;12.07;;;7.03;;
22034;SDS011;11181;51.002;4.356;2023-04-05T01:30:22;12.33;;;6.10;;
22034;SDS011;11181;51.002;4.356;2023-04-05T01:32:54;9.87;;;6.13;;
22034;SDS011;11181;51.002;4.356;2023-04-05T01:35:31;10.87;;;6.20;;
22034;SDS011;11181;51.002;4.356;2023-04-05T01:38:06;8.70;;;6.20;;
22034;SDS011;11181;51.002;4.356;2023-04-05T01:40:36;11.50;;;6.50;;
22034;SDS011;11181;51.002;4.356;2023-04-05T01:43:11;11.30;;;7.10;;
22034;SDS011;11181;51.002;4.356;2023-04-05T01:45:39;11.20;;;6.63;;
22034;SDS011;11181;51.002;4.356;2023-04-05T01:48:06;11.60;;;6.63;;
22034;SDS011;11181;51.002;4.356;2023-04-05T01:50:33;12.23;;;6.87;;
22034;SDS011;11181;51.002;4.356;2023-04-05T01:53:00;10.73;;;6.70;;
22034;SDS011;11181;51.002;4.356;2023-04-05T01:55:27;10.47;;;6.97;;
22034;SDS011;11181;51.002;4.356;2023-04-05T01:57:55;9.57;;;6.73;;
22034;SDS011;11181;51.002;4.356;2023-04-05T02:00:22;13.03;;;7.37;;
22034;SDS011;11181;51.002;4.356;2023-04-05T02:02:51;11.00;;;7.60;;
22034;SDS011;11181;51.002;4.356;2023-04-05T02:05:18;12.77;;;8.07;;
22034;SDS011;11181;51.002;4.356;2023-04-05T02:07:45;10.33;;;6.77;;
22034;SDS011;11181;51.002;4.356;2023-04-05T02:10:12;11.20;;;6.93;;
22034;SDS011;11181;51.002;4.356;2023-04-05T02:12:39;9.27;;;6.90;;
22034;SDS011;11181;51.002;4.356;2023-04-05T02:15:07;12.27;;;7.33;;
22034;SDS011;11181;51.002;4.356;2023-04-05T02:17:34;7.70;;;6.10;;
22034;SDS011;11181;51.002;4.356;2023-04-05T02:20:05;9.83;;;6.13;;
22034;SDS011;11181;51.002;4.356;2023-04-05T02:22:32;11.37;;;7.30;;
22034;SDS011;11181;51.002;4.356;2023-04-05T02:25:01;9.57;;;6.70;;
22034;SDS011;11181;51.002;4.356;2023-04-05T02:27:28;10.63;;;6.47;;
22034;SDS011;11181;51.002;4.356;2023-04-05T02:29:55;11.10;;;7.53;;
22034;SDS011;11181;51.002;4.356;2023-04-05T02:32:22;9.97;;;7.07;;
22034;SDS011;11181;51.002;4.356;2023-04-05T02:34:50;9.10;;;5.97;;
22034;SDS011;11181;51.002;4.356;2023-04-05T02:37:18;11.13;;;6.20;;
22034;SDS011;11181;51.002;4.356;2023-04-05T02:39:45;8.77;;;6.00;;
22034;SDS011;11181;51.002;4.356;2023-04-05T02:42:12;8.13;;;6.13;;
22034;SDS011;11181;51.002;4.356;2023-04-05T02:44:39;10.93;;;6.37;;
22034;SDS011;11181;51.002;4.356;2023-04-05T02:47:06;9.60;;;5.57;;
22034;SDS011;11181;51.002;4.356;2023-04-05T02:49:33;11.43;;;6.60;;
22034;SDS011;11181;51.002;4.356;2023-04-05T02:52:00;9.67;;;6.53;;
22034;SDS011;11181;51.002;4.356;2023-04-05T02:54:28;11.50;;;7.13;;
22034;SDS011;11181;51.002;4.356;2023-04-05T02:56:55;12.47;;;7.17;;
22034;SDS011;11181;51.002;4.356;2023-04-05T02:59:26;11.10;;;6.87;;
22034;SDS011;11181;51.002;4.356;2023-04-05T03:01:53;10.67;;;6.63;;
22034;SDS011;11181;51.002;4.356;2023-04-05T03:04:20;9.90;;;6.83;;
22034;SDS011;11181;51.002;4.356;2023-04-05T03:06:50;11.63;;;6.83;;
22034;SDS011;11181;51.002;4.356;2023-04-05T03:09:18;11.47;;;7.17;;
22034;SDS011;11181;51.002;4.356;2023-04-05T03:11:47;8.83;;;6.90;;
22034;SDS011;11181;51.002;4.356;2023-04-05T03:14:14;10.67;;;7.73;;
22034;SDS011;11181;51.002;4.356;2023-04-05T03:16:41;13.33;;;7.87;;
22034;SDS011;11181;51.002;4.356;2023-04-05T03:19:08;14.50;;;7.43;;
22034;SDS011;11181;51.002;4.356;2023-04-05T03:21:35;11.50;;;7.10;;
22034;SDS011;11181;51.002;4.356;2023-04-05T03:24:04;10.43;;;6.70;;
22034;SDS011;11181;51.002;4.356;2023-04-05T03:26:31;10.10;;;6.90;;
22034;SDS011;11181;51.002;4.356;2023-04-05T03:29:00;10.40;;;6.57;;
22034;SDS011;11181;51.002;4.356;2023-04-05T03:31:27;12.97;;;7.77;;
22034;SDS011;11181;51.002;4.356;2023-04-05T03:33:54;10.97;;;7.30;;
22034;SDS011;11181;51.002;4.356;2023-04-05T03:36:21;12.63;;;6.83;;
22034;SDS011;11181;51.002;4.356;2023-04-05T03:38:48;10.27;;;7.07;;
22034;SDS011;11181;51.002;4.356;2023-04-05T03:41:16;11.10;;;7.00;;
22034;SDS011;11181;51.002;4.356;2023-04-05T03:43:42;9.77;;;6.13;;
22034;SDS011;11181;51.002;4.356;2023-04-05T03:46:11;9.23;;;6.80;;
22034;SDS011;11181;51.002;4.356;2023-04-05T03:48:38;8.40;;;6.20;;
22034;SDS011;11181;51.002;4.356;2023-04-05T03:51:05;8.10;;;6.30;;
22034;SDS011;11181;51.002;4.356;2023-04-05T03:53:32;7.90;;;5.40;;
22034;SDS011;11181;51.002;4.356;2023-04-05T03:55:59;9.10;;;6.17;;
22034;SDS011;11181;51.002;4.356;2023-04-05T03:58:26;10.10;;;5.97;;
22034;SDS011;11181;51.002;4.356;2023-04-05T04:00:53;9.03;;;5.50;;
22034;SDS011;11181;51.002;4.356;2023-04-05T04:03:22;9.47;;;6.40;;
22034;SDS011;11181;51.002;4.356;2023-04-05T04:05:50;12.07;;;6.50;;
22034;SDS011;11181;51.002;4.356;2023-04-05T04:08:17;9.87;;;6.33;;
22034;SDS011;11181;51.002;4.356;2023-04-05T04:10:44;8.97;;;5.17;;
22034;SDS011;11181;51.002;4.356;2023-04-05T04:13:11;9.87;;;6.43;;
22034;SDS011;11181;51.002;4.356;2023-04-05T04:15:38;8.13;;;6.60;;
22034;SDS011;11181;51.002;4.356;2023-04-05T04:18:05;13.20;;;6.93;;
22034;SDS011;11181;51.002;4.356;2023-04-05T04:20:34;10.63;;;6.60;;
22034;SDS011;11181;51.002;4.356;2023-04-05T04:23:01;10.83;;;6.50;;
22034;SDS011;11181;51.002;4.356;2023-04-05T04:25:28;9.03;;;6.47;;
22034;SDS011;11181;51.002;4.356;2023-04-05T04:27:55;11.17;;;6.20;;
22034;SDS011;11181;51.002;4.356;2023-04-05T04:30:23;11.23;;;6.90;;
22034;SDS011;11181;51.002;4.356;2023-04-05T04:32:49;11.30;;;7.33;;
22034;SDS011;11181;51.002;4.356;2023-04-05T04:35:17;9.07;;;6.47;;
22034;SDS011;11181;51.002;4.356;2023-04-05T04:37:46;11.07;;;6.57;;
22034;SDS011;11181;51.002;4.356;2023-04-05T04:40:16;14.20;;;6.83;;
22034;SDS011;11181;51.002;4.356;2023-04-05T04:42:46;8.47;;;6.80;;
22034;SDS011;11181;51.002;4.356;2023-04-05T04:45:14;10.50;;;5.93;;
22034;SDS011;11181;51.002;4.356;2023-04-05T04:47:43;10.00;;;6.90;;
22034;SDS011;11181;51.002;4.356;2023-04-05T04:50:11;9.63;;;6.70;;
22034;SDS011;11181;51.002;4.356;2023-04-05T04:52:38;13.33;;;7.57;;
22034;SDS011;11181;51.002;4.356;2023-04-05T04:55:07;9.27;;;7.20;;
22034;SDS011;11181;51.002;4.356;2023-04-05T04:57:37;10.73;;;6.33;;
22034;SDS011;11181;51.002;4.356;2023-04-05T05:00:05;10.57;;;6.50;;
22034;SDS011;11181;51.002;4.356;2023-04-05T05:02:37;9.63;;;6.40;;
22034;SDS011;11181;51.002;4.356;2023-04-05T05:05:04;13.07;;;6.80;;
22034;SDS011;11181;51.002;4.356;2023-04-05T05:07:32;10.83;;;6.90;;
22034;SDS011;11181;51.002;4.356;2023-04-05T05:09:59;12.90;;;7.37;;
22034;SDS011;11181;51.002;4.356;2023-04-05T05:12:27;9.90;;;6.80;;
22034;SDS011;11181;51.002;4.356;2023-04-05T05:14:55;15.57;;;6.70;;
22034;SDS011;11181;51.002;4.356;2023-04-05T05:17:22;11.90;;;6.93;;
22034;SDS011;11181;51.002;4.356;2023-04-05T05:19:49;13.23;;;7.70;;
22034;SDS011;11181;51.002;4.356;2023-04-05T05:22:16;14.07;;;7.70;;
22034;SDS011;11181;51.002;4.356;2023-04-05T05:24:43;12.67;;;7.47;;
22034;SDS011;11181;51.002;4.356;2023-04-05T05:27:12;13.97;;;7.97;;
22034;SDS011;11181;51.002;4.356;2023-04-05T05:29:40;14.40;;;7.70;;
22034;SDS011;11181;51.002;4.356;2023-04-05T05:32:07;12.07;;;8.57;;
22034;SDS011;11181;51.002;4.356;2023-04-05T05:34:38;13.13;;;7.87;;
22034;SDS011;11181;51.002;4.356;2023-04-05T05:37:05;12.23;;;7.97;;
22034;SDS011;11181;51.002;4.356;2023-04-05T05:39:33;19.57;;;8.33;;
22034;SDS011;11181;51.002;4.356;2023-04-05T05:42:00;13.07;;;7.63;;
22034;SDS011;11181;51.002;4.356;2023-04-05T05:44:27;11.50;;;8.17;;
22034;SDS011;11181;51.002;4.356;2023-04-05T05:46:56;14.50;;;9.40;;
22034;SDS011;11181;51.002;4.356;2023-04-05T05:49:23;12.53;;;9.07;;
22034;SDS011;11181;51.002;4.356;2023-04-05T05:51:50;15.57;;;8.33;;
22034;SDS011;11181;51.002;4.356;2023-04-05T05:54:17;12.23;;;9.37;;
22034;SDS011;11181;51.002;4.356;2023-04-05T05:56:45;12.90;;;8.43;;
22034;SDS011;11181;51.002;4.356;2023-04-05T05:59:11;11.00;;;7.70;;
22034;SDS011;11181;51.002;4.356;2023-04-05T06:01:38;12.43;;;7.23;;
22034;SDS011;11181;51.002;4.356;2023-04-05T06:04:11;13.67;;;7.43;;
22034;SDS011;11181;51.002;4.356;2023-04-05T06:06:38;13.70;;;8.57;;
22034;SDS011;11181;51.002;4.356;2023-04-05T06:09:07;15.83;;;7.27;;
22034;SDS011;11181;51.002;4.356;2023-04-05T06:11:33;14.53;;;7.87;;
22034;SDS011;11181;51.002;4.356;2023-04-05T06:14:01;12.13;;;7.20;;
22034;SDS011;11181;51.002;4.356;2023-04-05T06:16:28;13.20;;;7.73;;
22034;SDS011;11181;51.002;4.356;2023-04-05T06:18:55;11.80;;;7.33;;
22034;SDS011;11181;51.002;4.356;2023-04-05T06:21:24;11.83;;;7.47;;
22034;SDS011;11181;51.002;4.356;2023-04-05T06:23:51;12.60;;;7.90;;
22034;SDS011;11181;51.002;4.356;2023-04-05T06:26:19;13.20;;;7.73;;
22034;SDS011;11181;51.002;4.356;2023-04-05T06:28:51;11.57;;;8.20;;
22034;SDS011;11181;51.002;4.356;2023-04-05T06:31:19;14.47;;;8.57;;
22034;SDS011;11181;51.002;4.356;2023-04-05T06:33:51;14.37;;;8.43;;
22034;SDS011;11181;51.002;4.356;2023-04-05T06:36:18;16.73;;;8.63;;
22034;SDS011;11181;51.002;4.356;2023-04-05T06:38:46;13.57;;;8.57;;
22034;SDS011;11181;51.002;4.356;2023-04-05T06:41:13;17.30;;;8.63;;
22034;SDS011;11181;51.002;4.356;2023-04-05T06:43:40;23.77;;;8.27;;
22034;SDS011;11181;51.002;4.356;2023-04-05T06:46:07;19.80;;;9.07;;
22034;SDS011;11181;51.002;4.356;2023-04-05T06:48:36;18.23;;;8.57;;
22034;SDS011;11181;51.002;4.356;2023-04-05T06:51:04;16.23;;;8.67;;
22034;SDS011;11181;51.002;4.356;2023-04-05T06:53:31;15.70;;;9.77;;
22034;SDS011;11181;51.002;4.356;2023-04-05T06:55:59;15.30;;;9.20;;
22034;SDS011;11181;51.002;4.356;2023-04-05T06:58:26;15.13;;;9.37;;
22034;SDS011;11181;51.002;4.356;2023-04-05T07:00:53;16.10;;;10.67;;
22034;SDS011;11181;51.002;4.356;2023-04-05T07:03:20;16.43;;;10.13;;
22034;SDS011;11181;51.002;4.356;2023-04-05T07:05:50;16.43;;;10.03;;
22034;SDS011;11181;51.002;4.356;2023-04-05T07:08:18;15.50;;;10.23;;
22034;SDS011;11181;51.002;4.356;2023-04-05T07:10:45;16.97;;;11.20;;
22034;SDS011;11181;51.002;4.356;2023-04-05T07:13:14;22.53;;;12.33;;
22034;SDS011;11181;51.002;4.356;2023-04-05T07:15:42;18.23;;;12.17;;
22034;SDS011;11181;51.002;4.356;2023-04-05T07:18:09;21.00;;;13.63;;
22034;SDS011;11181;51.002;4.356;2023-04-05T07:20:36;18.20;;;12.63;;
22034;SDS011;11181;51.002;4.356;2023-04-05T07:23:03;19.83;;;12.63;;
22034;SDS011;11181;51.002;4.356;2023-04-05T07:25:31;26.57;;;13.50;;
22034;SDS011;11181;51.002;4.356;2023-04-05T07:27:58;20.50;;;12.57;;
22034;SDS011;11181;51.002;4.356;2023-04-05T07:30:26;21.07;;;11.63;;
22034;SDS011;11181;51.002;4.356;2023-04-05T07:32:54;16.27;;;10.83;;
22034;SDS011;11181;51.002;4.356;2023-04-05T07:35:21;22.57;;;11.13;;
22034;SDS011;11181;51.002;4.356;2023-04-05T07:37:47;17.57;;;12.03;;
22034;SDS011;11181;51.002;4.356;2023-04-05T07:40:16;21.50;;;13.97;;
22034;SDS011;11181;51.002;4.356;2023-04-05T07:42:43;23.03;;;14.27;;
22034;SDS011;11181;51.002;4.356;2023-04-05T07:45:10;15.57;;;11.70;;
22034;SDS011;11181;51.002;4.356;2023-04-05T07:47:39;21.93;;;12.80;;
22034;SDS011;11181;51.002;4.356;2023-04-05T07:50:06;23.73;;;13.10;;
22034;SDS011;11181;51.002;4.356;2023-04-05T07:52:36;17.73;;;11.90;;
22034;SDS011;11181;51.002;4.356;2023-04-05T07:55:03;15.27;;;11.87;;
22034;SDS011;11181;51.002;4.356;2023-04-05T07:57:31;15.37;;;11.67;;
22034;SDS011;11181;51.002;4.356;2023-04-05T07:59:58;15.33;;;12.03;;
22034;SDS011;11181;51.002;4.356;2023-04-05T08:02:25;15.00;;;11.17;;
22034;SDS011;11181;51.002;4.356;2023-04-05T08:04:53;15.97;;;11.53;;
22034;SDS011;11181;51.002;4.356;2023-04-05T08:07:21;18.47;;;12.43;;
22034;SDS011;11181;51.002;4.356;2023-04-05T08:09:48;15.17;;;10.97;;
22034;SDS011;11181;51.002;4.356;2023-04-05T08:12:15;15.73;;;10.70;;
22034;SDS011;11181;51.002;4.356;2023-04-05T08:14:42;15.13;;;11.57;;
22034;SDS011;11181;51.002;4.356;2023-04-05T08:17:09;12.53;;;10.10;;
22034;SDS011;11181;51.002;4.356;2023-04-05T08:19:36;17.13;;;9.33;;
22034;SDS011;11181;51.002;4.356;2023-04-05T08:22:04;14.23;;;9.93;;
22034;SDS011;11181;51.002;4.356;2023-04-05T08:24:31;14.73;;;7.03;;
22034;SDS011;11181;51.002;4.356;2023-04-05T08:26:58;10.20;;;7.00;;
22034;SDS011;11181;51.002;4.356;2023-04-05T08:29:25;10.37;;;6.50;;
22034;SDS011;11181;51.002;4.356;2023-04-05T08:31:54;9.37;;;6.87;;
22034;SDS011;11181;51.002;4.356;2023-04-05T08:34:22;10.47;;;6.90;;
22034;SDS011;11181;51.002;4.356;2023-04-05T08:36:49;9.30;;;6.70;;
22034;SDS011;11181;51.002;4.356;2023-04-05T08:39:17;9.67;;;7.27;;
22034;SDS011;11181;51.002;4.356;2023-04-05T08:41:49;10.10;;;6.63;;
22034;SDS011;11181;51.002;4.356;2023-04-05T08:44:22;16.57;;;8.83;;
22034;SDS011;11181;51.002;4.356;2023-04-05T08:46:51;10.73;;;7.43;;
22034;SDS011;11181;51.002;4.356;2023-04-05T08:49:21;11.20;;;7.30;;
22034;SDS011;11181;51.002;4.356;2023-04-05T08:51:48;14.37;;;8.53;;
22034;SDS011;11181;51.002;4.356;2023-04-05T08:54:15;13.20;;;6.57;;
22034;SDS011;11181;51.002;4.356;2023-04-05T08:56:45;10.07;;;6.33;;
22034;SDS011;11181;51.002;4.356;2023-04-05T08:59:14;9.83;;;6.33;;
22034;SDS011;11181;51.002;4.356;2023-04-05T09:01:45;8.67;;;5.80;;
22034;SDS011;11181;51.002;4.356;2023-04-05T09:04:16;6.37;;;5.27;;
22034;SDS011;11181;51.002;4.356;2023-04-05T09:06:46;10.77;;;6.37;;
22034;SDS011;11181;51.002;4.356;2023-04-05T09:09:14;10.43;;;6.10;;
22034;SDS011;11181;51.002;4.356;2023-04-05T09:11:43;8.53;;;5.60;;
22034;SDS011;11181;51.002;4.356;2023-04-05T09:14:10;8.70;;;6.63;;
22034;SDS011;11181;51.002;4.356;2023-04-05T09:16:37;8.03;;;5.60;;
22034;SDS011;11181;51.002;4.356;2023-04-05T09:19:06;7.67;;;6.07;;
22034;SDS011;11181;51.002;4.356;2023-04-05T09:24:34;9.37;;;5.43;;
22034;SDS011;11181;51.002;4.356;2023-04-05T09:27:07;8.00;;;6.07;;
22034;SDS011;11181;51.002;4.356;2023-04-05T09:29:35;10.87;;;7.37;;
22034;SDS011;11181;51.002;4.356;2023-04-05T09:32:03;8.77;;;6.70;;
22034;SDS011;11181;51.002;4.356;2023-04-05T09:34:31;12.00;;;6.63;;
22034;SDS011;11181;51.002;4.356;2023-04-05T09:37:00;8.33;;;6.60;;
22034;SDS011;11181;51.002;4.356;2023-04-05T09:39:28;10.17;;;7.17;;
22034;SDS011;11181;51.002;4.356;2023-04-05T09:42:03;9.77;;;7.07;;
22034;SDS011;11181;51.002;4.356;2023-04-05T09:44:49;11.10;;;6.57;;
22034;SDS011;11181;51.002;4.356;2023-04-05T09:47:17;8.40;;;6.47;;
22034;SDS011;11181;51.002;4.356;2023-04-05T09:49:45;11.53;;;6.47;;
22034;SDS011;11181;51.002;4.356;2023-04-05T09:52:18;8.30;;;6.60;;
22034;SDS011;11181;51.002;4.356;2023-04-05T09:54:46;11.10;;;7.77;;
22034;SDS011;11181;51.002;4.356;2023-04-05T09:57:14;12.03;;;6.97;;
22034;SDS011;11181;51.002;4.356;2023-04-05T09:59:42;9.80;;;6.67;;
22034;SDS011;11181;51.002;4.356;2023-04-05T10:02:11;9.40;;;7.30;;
22034;SDS011;11181;51.002;4.356;2023-04-05T10:04:38;10.67;;;8.07;;
22034;SDS011;11181;51.002;4.356;2023-04-05T10:07:06;11.57;;;7.77;;
22034;SDS011;11181;51.002;4.356;2023-04-05T10:09:34;12.27;;;7.63;;
22034;SDS011;11181;51.002;4.356;2023-04-05T10:12:02;11.40;;;6.60;;
22034;SDS011;11181;51.002;4.356;2023-04-05T10:14:30;11.63;;;7.60;;
22034;SDS011;11181;51.002;4.356;2023-04-05T10:16:58;8.77;;;6.40;;
22034;SDS011;11181;51.002;4.356;2023-04-05T10:19:40;11.83;;;7.40;;
22034;SDS011;11181;51.002;4.356;2023-04-05T10:22:19;11.17;;;7.60;;
22034;SDS011;11181;51.002;4.356;2023-04-05T10:24:51;12.47;;;7.03;;
22034;SDS011;11181;51.002;4.356;2023-04-05T10:27:21;12.43;;;7.50;;
22034;SDS011;11181;51.002;4.356;2023-04-05T10:29:57;9.93;;;6.80;;
22034;SDS011;11181;51.002;4.356;2023-04-05T10:32:51;8.67;;;7.00;;
22034;SDS011;11181;51.002;4.356;2023-04-05T10:35:34;10.53;;;7.40;;
22034;SDS011;11181;51.002;4.356;2023-04-05T10:38:11;15.40;;;7.80;;
22034;SDS011;11181;51.002;4.356;2023-04-05T10:40:45;9.57;;;7.17;;
22034;SDS011;11181;51.002;4.356;2023-04-05T10:43:14;9.13;;;7.73;;
22034;SDS011;11181;51.002;4.356;2023-04-05T10:45:46;9.50;;;7.10;;
22034;SDS011;11181;51.002;4.356;2023-04-05T10:48:17;13.30;;;7.57;;
22034;SDS011;11181;51.002;4.356;2023-04-05T10:50:54;10.53;;;7.13;;
22034;SDS011;11181;51.002;4.356;2023-04-05T10:53:23;10.87;;;7.07;;
22034;SDS011;11181;51.002;4.356;2023-04-05T10:55:52;11.37;;;7.67;;
22034;SDS011;11181;51.002;4.356;2023-04-05T10:58:23;7.63;;;6.53;;
22034;SDS011;11181;51.002;4.356;2023-04-05T11:00:51;8.60;;;6.60;;
22034;SDS011;11181;51.002;4.356;2023-04-05T11:06:18;10.23;;;6.60;;
22034;SDS011;11181;51.002;4.356;2023-04-05T11:08:47;10.43;;;7.13;;
22034;SDS011;11181;51.002;4.356;2023-04-05T11:11:18;9.97;;;7.97;;
22034;SDS011;11181;51.002;4.356;2023-04-05T11:13:48;10.53;;;7.50;;
22034;SDS011;11181;51.002;4.356;2023-04-05T11:16:19;12.50;;;7.35;;
22034;SDS011;11181;51.002;4.356;2023-04-05T11:18:47;9.30;;;6.97;;
22034;SDS011;11181;51.002;4.356;2023-04-05T11:21:23;10.57;;;7.15;;
22034;SDS011;11181;51.002;4.356;2023-04-05T11:24:01;9.02;;;7.15;;
22034;SDS011;11181;51.002;4.356;2023-04-05T11:26:31;8.73;;;6.78;;
22034;SDS011;11181;51.002;4.356;2023-04-05T11:28:59;11.63;;;7.22;;
22034;SDS011;11181;51.002;4.356;2023-04-05T11:31:26;7.90;;;5.70;;
22034;SDS011;11181;51.002;4.356;2023-04-05T11:33:54;10.57;;;6.80;;
22034;SDS011;11181;51.002;4.356;2023-04-05T11:36:31;8.38;;;6.97;;
22034;SDS011;11181;51.002;4.356;2023-04-05T11:41:57;12.25;;;7.47;;
22034;SDS011;11181;51.002;4.356;2023-04-05T11:44:26;11.60;;;6.78;;
22034;SDS011;11181;51.002;4.356;2023-04-05T11:46:54;8.63;;;7.13;;
22034;SDS011;11181;51.002;4.356;2023-04-05T11:49:22;11.38;;;7.68;;
22034;SDS011;11181;51.002;4.356;2023-04-05T11:51:51;10.45;;;6.90;;
22034;SDS011;11181;51.002;4.356;2023-04-05T11:54:29;8.05;;;6.35;;
22034;SDS011;11181;51.002;4.356;2023-04-05T11:56:58;8.50;;;6.50;;
22034;SDS011;11181;51.002;4.356;2023-04-05T11:59:29;10.10;;;6.82;;
22034;SDS011;11181;51.002;4.356;2023-04-05T12:01:58;7.95;;;6.93;;
22034;SDS011;11181;51.002;4.356;2023-04-05T12:04:26;10.52;;;6.60;;
22034;SDS011;11181;51.002;4.356;2023-04-05T12:07:16;7.72;;;6.00;;
22034;SDS011;11181;51.002;4.356;2023-04-05T12:10:03;11.55;;;7.00;;
22034;SDS011;11181;51.002;4.356;2023-04-05T12:12:33;8.48;;;6.60;;
22034;SDS011;11181;51.002;4.356;2023-04-05T12:15:02;9.40;;;6.82;;
22034;SDS011;11181;51.002;4.356;2023-04-05T12:17:44;9.27;;;6.80;;
22034;SDS011;11181;51.002;4.356;2023-04-05T12:20:14;8.98;;;6.70;;
22034;SDS011;11181;51.002;4.356;2023-04-05T12:22:45;7.75;;;6.55;;
22034;SDS011;11181;51.002;4.356;2023-04-05T12:25:13;10.80;;;6.68;;
22034;SDS011;11181;51.002;4.356;2023-04-05T12:27:41;9.85;;;6.47;;
22034;SDS011;11181;51.002;4.356;2023-04-05T12:30:13;8.23;;;7.03;;
22034;SDS011;11181;51.002;4.356;2023-04-05T12:32:41;9.70;;;7.47;;
22034;SDS011;11181;51.002;4.356;2023-04-05T12:35:14;8.55;;;6.90;;
22034;SDS011;11181;51.002;4.356;2023-04-05T12:37:41;10.25;;;7.43;;
22034;SDS011;11181;51.002;4.356;2023-04-05T12:40:10;9.85;;;7.20;;
22034;SDS011;11181;51.002;4.356;2023-04-05T12:42:38;10.65;;;7.82;;
22034;SDS011;11181;51.002;4.356;2023-04-05T12:45:07;10.38;;;7.55;;
22034;SDS011;11181;51.002;4.356;2023-04-05T12:47:46;11.85;;;7.15;;
22034;SDS011;11181;51.002;4.356;2023-04-05T12:50:15;10.15;;;7.22;;
22034;SDS011;11181;51.002;4.356;2023-04-05T12:52:55;13.45;;;8.98;;
22034;SDS011;11181;51.002;4.356;2023-04-05T12:55:26;10.15;;;7.70;;
22034;SDS011;11181;51.002;4.356;2023-04-05T12:57:54;9.63;;;6.80;;
22034;SDS011;11181;51.002;4.356;2023-04-05T13:00:23;10.38;;;7.38;;
22034;SDS011;11181;51.002;4.356;2023-04-05T13:02:52;9.07;;;7.72;;
22034;SDS011;11181;51.002;4.356;2023-04-05T13:05:20;12.18;;;7.15;;
22034;SDS011;11181;51.002;4.356;2023-04-05T13:07:48;10.90;;;7.10;;
22034;SDS011;11181;51.002;4.356;2023-04-05T13:10:15;10.85;;;7.10;;
22034;SDS011;11181;51.002;4.356;2023-04-05T13:12:44;9.20;;;7.15;;
22034;SDS011;11181;51.002;4.356;2023-04-05T13:15:11;11.77;;;6.82;;
22034;SDS011;11181;51.002;4.356;2023-04-05T13:17:39;10.05;;;6.53;;
22034;SDS011;11181;51.002;4.356;2023-04-05T13:20:06;8.93;;;6.85;;
22034;SDS011;11181;51.002;4.356;2023-04-05T13:22:34;7.50;;;6.18;;
22034;SDS011;11181;51.002;4.356;2023-04-05T13:25:01;8.70;;;6.25;;
22034;SDS011;11181;51.002;4.356;2023-04-05T13:27:28;10.25;;;6.38;;
22034;SDS011;11181;51.002;4.356;2023-04-05T13:29:56;8.07;;;5.78;;
22034;SDS011;11181;51.002;4.356;2023-04-05T13:32:23;9.00;;;6.82;;
22034;SDS011;11181;51.002;4.356;2023-04-05T13:34:50;14.02;;;7.78;;
22034;SDS011;11181;51.002;4.356;2023-04-05T13:37:17;9.13;;;6.43;;
22034;SDS011;11181;51.002;4.356;2023-04-05T13:39:44;11.27;;;7.28;;
22034;SDS011;11181;51.002;4.356;2023-04-05T13:42:11;8.82;;;6.40;;
22034;SDS011;11181;51.002;4.356;2023-04-05T13:44:38;8.20;;;6.45;;
22034;SDS011;11181;51.002;4.356;2023-04-05T13:47:06;10.60;;;7.32;;
22034;SDS011;11181;51.002;4.356;2023-04-05T13:49:33;10.07;;;6.97;;
22034;SDS011;11181;51.002;4.356;2023-04-05T13:52:00;8.50;;;6.43;;
22034;SDS011;11181;51.002;4.356;2023-04-05T13:54:27;10.10;;;7.10;;
22034;SDS011;11181;51.002;4.356;2023-04-05T13:56:54;11.52;;;7.25;;
22034;SDS011;11181;51.002;4.356;2023-04-05T13:59:23;8.57;;;6.25;;
22034;SDS011;11181;51.002;4.356;2023-04-05T14:01:50;9.43;;;6.18;;
22034;SDS011;11181;51.002;4.356;2023-04-05T14:04:18;11.02;;;7.50;;
22034;SDS011;11181;51.002;4.356;2023-04-05T14:06:45;9.00;;;6.55;;
22034;SDS011;11181;51.002;4.356;2023-04-05T14:09:12;9.40;;;6.70;;
22034;SDS011;11181;51.002;4.356;2023-04-05T14:11:39;7.80;;;6.30;;
22034;SDS011;11181;51.002;4.356;2023-04-05T14:14:06;9.57;;;6.82;;
22034;SDS011;11181;51.002;4.356;2023-04-05T14:16:33;9.23;;;7.00;;
22034;SDS011;11181;51.002;4.356;2023-04-05T14:19:01;9.52;;;6.57;;
22034;SDS011;11181;51.002;4.356;2023-04-05T14:21:30;9.00;;;6.50;;
22034;SDS011;11181;51.002;4.356;2023-04-05T14:23:58;10.93;;;6.72;;
22034;SDS011;11181;51.002;4.356;2023-04-05T14:26:25;7.93;;;6.55;;
22034;SDS011;11181;51.002;4.356;2023-04-05T14:28:53;9.20;;;6.80;;
22034;SDS011;11181;51.002;4.356;2023-04-05T14:31:20;9.15;;;7.03;;
22034;SDS011;11181;51.002;4.356;2023-04-05T14:33:49;8.65;;;6.90;;
22034;SDS011;11181;51.002;4.356;2023-04-05T14:36:16;9.45;;;7.25;;
22034;SDS011;11181;51.002;4.356;2023-04-05T14:38:44;12.25;;;7.00;;
22034;SDS011;11181;51.002;4.356;2023-04-05T14:41:11;8.15;;;6.80;;
22034;SDS011;11181;51.002;4.356;2023-04-05T14:43:39;12.48;;;6.72;;
22034;SDS011;11181;51.002;4.356;2023-04-05T14:46:06;12.52;;;7.45;;
22034;SDS011;11181;51.002;4.356;2023-04-05T14:48:33;11.23;;;7.40;;
22034;SDS011;11181;51.002;4.356;2023-04-05T14:51:01;8.95;;;6.53;;
22034;SDS011;11181;51.002;4.356;2023-04-05T14:53:28;10.20;;;8.02;;
22034;SDS011;11181;51.002;4.356;2023-04-05T14:55:57;12.15;;;7.40;;
22034;SDS011;11181;51.002;4.356;2023-04-05T14:58:24;9.43;;;8.20;;
22034;SDS011;11181;51.002;4.356;2023-04-05T15:00:53;10.32;;;7.20;;